sensor_id;sensor_type;location;lat;lon;timestamp;P1;durP1;ratioP1;P2;durP2;ratioP2
18677;SDS011;9469;51.114;13.914;2022-09-01T00:02:02;4.90;;;3.07;;
18677;SDS011;9469;51.114;13.914;2022-09-01T00:07:09;4.87;;;2.70;;
18677;SDS011;9469;51.114;13.914;2022-09-01T00:12:15;6.10;;;3.37;;
18677;SDS011;9469;51.114;13.914;2022-09-01T00:17:26;5.67;;;2.97;;
18677;SDS011;9469;51.114;13.914;2022-09-01T00:22:31;2.83;;;2.53;;
18677;SDS011;9469;51.114;13.914;2022-09-01T00:27:38;5.40;;;2.70;;
18677;SDS011;9469;51.114;13.914;2022-09-01T00:32:46;3.93;;;2.67;;
18677;SDS011;9469;51.114;13.914;2022-09-01T00:37:51;3.33;;;2.60;;
18677;SDS011;9469;51.114;13.914;2022-09-01T00:42:58;5.53;;;2.70;;
18677;SDS011;9469;51.114;13.914;2022-09-01T00:48:06;3.00;;;2.63;;
18677;SDS011;9469;51.114;13.914;2022-09-01T00:53:12;4.93;;;2.97;;
18677;SDS011;9469;51.114;13.914;2022-09-01T00:58:17;5.33;;;2.60;;
18677;SDS011;9469;51.114;13.914;2022-09-01T01:03:27;2.67;;;2.30;;
18677;SDS011;9469;51.114;13.914;2022-09-01T01:08:33;6.87;;;2.70;;
18677;SDS011;9469;51.114;13.914;2022-09-01T01:13:46;7.20;;;2.73;;
18677;SDS011;9469;51.114;13.914;2022-09-01T01:18:55;8.17;;;3.33;;
18677;SDS011;9469;51.114;13.914;2022-09-01T01:24:05;6.50;;;2.90;;
18677;SDS011;9469;51.114;13.914;2022-09-01T01:29:22;7.13;;;3.20;;
18677;SDS011;9469;51.114;13.914;2022-09-01T01:34:30;7.13;;;3.33;;
18677;SDS011;9469;51.114;13.914;2022-09-01T01:39:35;3.33;;;2.57;;
18677;SDS011;9469;51.114;13.914;2022-09-01T01:44:44;5.00;;;2.60;;
18677;SDS011;9469;51.114;13.914;2022-09-01T01:49:50;3.63;;;3.03;;
18677;SDS011;9469;51.114;13.914;2022-09-01T01:54:56;5.50;;;3.57;;
18677;SDS011;9469;51.114;13.914;2022-09-01T02:00:11;4.13;;;3.10;;
18677;SDS011;9469;51.114;13.914;2022-09-01T02:05:31;4.23;;;3.37;;
18677;SDS011;9469;51.114;13.914;2022-09-01T02:10:40;4.83;;;3.10;;
18677;SDS011;9469;51.114;13.914;2022-09-01T02:15:51;4.27;;;3.00;;
18677;SDS011;9469;51.114;13.914;2022-09-01T02:20:59;2.90;;;2.70;;
18677;SDS011;9469;51.114;13.914;2022-09-01T02:26:09;5.97;;;3.10;;
18677;SDS011;9469;51.114;13.914;2022-09-01T02:31:20;5.57;;;3.80;;
18677;SDS011;9469;51.114;13.914;2022-09-01T02:36:25;5.43;;;3.00;;
18677;SDS011;9469;51.114;13.914;2022-09-01T02:41:34;5.80;;;2.80;;
18677;SDS011;9469;51.114;13.914;2022-09-01T02:46:43;4.93;;;2.80;;
18677;SDS011;9469;51.114;13.914;2022-09-01T02:51:50;5.27;;;3.03;;
18677;SDS011;9469;51.114;13.914;2022-09-01T02:57:03;6.03;;;3.17;;
18677;SDS011;9469;51.114;13.914;2022-09-01T03:02:12;3.00;;;2.77;;
18677;SDS011;9469;51.114;13.914;2022-09-01T03:07:17;6.27;;;3.17;;
18677;SDS011;9469;51.114;13.914;2022-09-01T03:12:24;5.33;;;3.40;;
18677;SDS011;9469;51.114;13.914;2022-09-01T03:17:32;4.57;;;2.90;;
18677;SDS011;9469;51.114;13.914;2022-09-01T03:22:37;5.27;;;3.73;;
18677;SDS011;9469;51.114;13.914;2022-09-01T03:27:42;8.57;;;3.13;;
18677;SDS011;9469;51.114;13.914;2022-09-01T03:32:51;6.47;;;3.60;;
18677;SDS011;9469;51.114;13.914;2022-09-01T03:37:56;5.50;;;3.73;;
18677;SDS011;9469;51.114;13.914;2022-09-01T03:43:02;7.40;;;4.10;;
18677;SDS011;9469;51.114;13.914;2022-09-01T03:48:13;5.13;;;3.40;;
18677;SDS011;9469;51.114;13.914;2022-09-01T03:53:21;6.37;;;3.70;;
18677;SDS011;9469;51.114;13.914;2022-09-01T03:58:31;11.83;;;3.87;;
18677;SDS011;9469;51.114;13.914;2022-09-01T04:03:39;7.63;;;3.53;;
18677;SDS011;9469;51.114;13.914;2022-09-01T04:08:46;5.67;;;3.70;;
18677;SDS011;9469;51.114;13.914;2022-09-01T04:13:56;5.53;;;3.50;;
18677;SDS011;9469;51.114;13.914;2022-09-01T04:19:05;4.43;;;3.33;;
18677;SDS011;9469;51.114;13.914;2022-09-01T04:24:16;6.00;;;3.73;;
18677;SDS011;9469;51.114;13.914;2022-09-01T04:29:25;6.87;;;4.17;;
18677;SDS011;9469;51.114;13.914;2022-09-01T04:34:35;7.13;;;3.70;;
18677;SDS011;9469;51.114;13.914;2022-09-01T04:39:47;5.17;;;3.77;;
18677;SDS011;9469;51.114;13.914;2022-09-01T04:44:58;7.23;;;4.83;;
18677;SDS011;9469;51.114;13.914;2022-09-01T04:50:16;8.10;;;3.77;;
18677;SDS011;9469;51.114;13.914;2022-09-01T04:55:41;7.60;;;4.37;;
18677;SDS011;9469;51.114;13.914;2022-09-01T05:00:50;8.70;;;3.73;;
18677;SDS011;9469;51.114;13.914;2022-09-01T05:06:01;6.50;;;3.70;;
18677;SDS011;9469;51.114;13.914;2022-09-01T05:11:15;7.67;;;4.50;;
18677;SDS011;9469;51.114;13.914;2022-09-01T05:16:21;7.00;;;4.37;;
18677;SDS011;9469;51.114;13.914;2022-09-01T05:21:32;6.13;;;3.63;;
18677;SDS011;9469;51.114;13.914;2022-09-01T05:26:41;8.77;;;4.23;;
18677;SDS011;9469;51.114;13.914;2022-09-01T05:31:48;10.40;;;4.70;;
18677;SDS011;9469;51.114;13.914;2022-09-01T05:36:58;6.77;;;4.00;;
18677;SDS011;9469;51.114;13.914;2022-09-01T05:42:07;6.73;;;3.77;;
18677;SDS011;9469;51.114;13.914;2022-09-01T05:47:13;6.43;;;4.13;;
18677;SDS011;9469;51.114;13.914;2022-09-01T05:52:29;12.13;;;4.10;;
18677;SDS011;9469;51.114;13.914;2022-09-01T05:57:42;8.63;;;4.20;;
18677;SDS011;9469;51.114;13.914;2022-09-01T06:02:50;5.57;;;3.83;;
18677;SDS011;9469;51.114;13.914;2022-09-01T06:08:01;6.70;;;4.17;;
18677;SDS011;9469;51.114;13.914;2022-09-01T06:13:12;7.23;;;4.40;;
18677;SDS011;9469;51.114;13.914;2022-09-01T06:18:23;8.33;;;3.83;;
18677;SDS011;9469;51.114;13.914;2022-09-01T06:23:34;7.13;;;4.03;;
18677;SDS011;9469;51.114;13.914;2022-09-01T06:28:41;10.77;;;4.67;;
18677;SDS011;9469;51.114;13.914;2022-09-01T06:33:46;9.27;;;4.90;;
18677;SDS011;9469;51.114;13.914;2022-09-01T06:38:57;7.50;;;5.30;;
18677;SDS011;9469;51.114;13.914;2022-09-01T06:44:08;8.97;;;3.80;;
18677;SDS011;9469;51.114;13.914;2022-09-01T06:49:24;11.73;;;4.93;;
18677;SDS011;9469;51.114;13.914;2022-09-01T06:54:36;5.23;;;4.10;;
18677;SDS011;9469;51.114;13.914;2022-09-01T06:59:54;13.73;;;5.17;;
18677;SDS011;9469;51.114;13.914;2022-09-01T07:05:09;6.23;;;4.00;;
18677;SDS011;9469;51.114;13.914;2022-09-01T07:10:48;6.43;;;3.40;;
18677;SDS011;9469;51.114;13.914;2022-09-01T07:16:15;7.43;;;3.63;;
18677;SDS011;9469;51.114;13.914;2022-09-01T07:21:44;7.00;;;3.80;;
18677;SDS011;9469;51.114;13.914;2022-09-01T07:27:15;9.00;;;4.27;;
18677;SDS011;9469;51.114;13.914;2022-09-01T07:32:52;8.17;;;3.67;;
18677;SDS011;9469;51.114;13.914;2022-09-01T07:38:19;9.50;;;3.40;;
18677;SDS011;9469;51.114;13.914;2022-09-01T07:43:47;7.30;;;3.43;;
18677;SDS011;9469;51.114;13.914;2022-09-01T07:49:22;5.37;;;3.13;;
18677;SDS011;9469;51.114;13.914;2022-09-01T07:54:33;4.43;;;3.37;;
18677;SDS011;9469;51.114;13.914;2022-09-01T07:59:43;6.67;;;3.60;;
18677;SDS011;9469;51.114;13.914;2022-09-01T08:04:52;5.63;;;3.60;;
18677;SDS011;9469;51.114;13.914;2022-09-01T08:09:57;4.77;;;3.73;;
18677;SDS011;9469;51.114;13.914;2022-09-01T08:15:08;4.10;;;2.63;;
18677;SDS011;9469;51.114;13.914;2022-09-01T08:20:36;10.73;;;3.63;;
18677;SDS011;9469;51.114;13.914;2022-09-01T08:26:08;7.17;;;3.90;;
18677;SDS011;9469;51.114;13.914;2022-09-01T08:31:19;6.77;;;3.03;;
18677;SDS011;9469;51.114;13.914;2022-09-01T08:36:25;5.43;;;3.17;;
18677;SDS011;9469;51.114;13.914;2022-09-01T08:41:41;7.00;;;3.60;;
18677;SDS011;9469;51.114;13.914;2022-09-01T08:46:56;5.77;;;3.50;;
18677;SDS011;9469;51.114;13.914;2022-09-01T08:52:07;5.93;;;4.17;;
18677;SDS011;9469;51.114;13.914;2022-09-01T08:57:23;8.47;;;3.90;;
18677;SDS011;9469;51.114;13.914;2022-09-01T09:03:04;6.03;;;4.07;;
18677;SDS011;9469;51.114;13.914;2022-09-01T09:13:51;5.90;;;2.90;;
18677;SDS011;9469;51.114;13.914;2022-09-01T09:19:06;10.17;;;3.30;;
18677;SDS011;9469;51.114;13.914;2022-09-01T09:24:19;8.13;;;3.77;;
18677;SDS011;9469;51.114;13.914;2022-09-01T09:29:40;5.83;;;3.63;;
18677;SDS011;9469;51.114;13.914;2022-09-01T09:34:49;6.23;;;3.20;;
18677;SDS011;9469;51.114;13.914;2022-09-01T09:40:02;5.43;;;3.10;;
18677;SDS011;9469;51.114;13.914;2022-09-01T09:45:20;7.00;;;2.90;;
18677;SDS011;9469;51.114;13.914;2022-09-01T09:50:30;4.73;;;3.07;;
18677;SDS011;9469;51.114;13.914;2022-09-01T09:55:48;9.03;;;3.50;;
18677;SDS011;9469;51.114;13.914;2022-09-01T10:00:59;7.20;;;3.10;;
18677;SDS011;9469;51.114;13.914;2022-09-01T10:06:30;4.90;;;2.93;;
18677;SDS011;9469;51.114;13.914;2022-09-01T10:11:37;5.93;;;2.83;;
18677;SDS011;9469;51.114;13.914;2022-09-01T10:16:44;10.57;;;3.80;;
18677;SDS011;9469;51.114;13.914;2022-09-01T10:21:58;8.40;;;2.97;;
18677;SDS011;9469;51.114;13.914;2022-09-01T10:27:17;6.73;;;3.03;;
18677;SDS011;9469;51.114;13.914;2022-09-01T10:32:26;3.77;;;2.43;;
18677;SDS011;9469;51.114;13.914;2022-09-01T10:37:48;4.67;;;2.67;;
18677;SDS011;9469;51.114;13.914;2022-09-01T10:42:59;5.93;;;3.00;;
18677;SDS011;9469;51.114;13.914;2022-09-01T10:49:02;5.23;;;2.97;;
18677;SDS011;9469;51.114;13.914;2022-09-01T11:11:24;5.47;;;2.73;;
18677;SDS011;9469;51.114;13.914;2022-09-01T11:16:37;7.83;;;2.70;;
18677;SDS011;9469;51.114;13.914;2022-09-01T11:22:04;5.50;;;2.40;;
18677;SDS011;9469;51.114;13.914;2022-09-01T11:33:02;5.37;;;2.27;;
18677;SDS011;9469;51.114;13.914;2022-09-01T11:38:19;7.50;;;2.03;;
18677;SDS011;9469;51.114;13.914;2022-09-01T11:43:25;5.70;;;1.80;;
18677;SDS011;9469;51.114;13.914;2022-09-01T11:48:32;4.57;;;1.60;;
18677;SDS011;9469;51.114;13.914;2022-09-01T11:53:40;4.10;;;1.97;;
18677;SDS011;9469;51.114;13.914;2022-09-01T11:58:47;3.57;;;1.40;;
18677;SDS011;9469;51.114;13.914;2022-09-01T12:03:52;4.87;;;1.47;;
18677;SDS011;9469;51.114;13.914;2022-09-01T12:09:00;3.67;;;1.63;;
18677;SDS011;9469;51.114;13.914;2022-09-01T12:14:07;5.50;;;1.30;;
18677;SDS011;9469;51.114;13.914;2022-09-01T12:19:21;2.97;;;1.20;;
18677;SDS011;9469;51.114;13.914;2022-09-01T12:24:30;3.60;;;1.07;;
18677;SDS011;9469;51.114;13.914;2022-09-01T12:29:38;1.50;;;0.97;;
18677;SDS011;9469;51.114;13.914;2022-09-01T12:34:44;2.40;;;1.20;;
18677;SDS011;9469;51.114;13.914;2022-09-01T12:39:53;2.63;;;1.30;;
18677;SDS011;9469;51.114;13.914;2022-09-01T12:45:00;4.27;;;1.40;;
18677;SDS011;9469;51.114;13.914;2022-09-01T12:56:00;3.57;;;1.73;;
18677;SDS011;9469;51.114;13.914;2022-09-01T13:01:15;3.90;;;1.63;;
18677;SDS011;9469;51.114;13.914;2022-09-01T13:06:29;4.97;;;2.10;;
18677;SDS011;9469;51.114;13.914;2022-09-01T13:11:37;2.60;;;1.83;;
18677;SDS011;9469;51.114;13.914;2022-09-01T13:17:02;2.27;;;1.43;;
18677;SDS011;9469;51.114;13.914;2022-09-01T13:22:15;2.30;;;1.47;;
18677;SDS011;9469;51.114;13.914;2022-09-01T13:27:22;4.50;;;1.40;;
18677;SDS011;9469;51.114;13.914;2022-09-01T13:32:27;6.20;;;1.80;;
18677;SDS011;9469;51.114;13.914;2022-09-01T13:37:32;1.93;;;1.47;;
18677;SDS011;9469;51.114;13.914;2022-09-01T13:42:40;2.70;;;1.70;;
18677;SDS011;9469;51.114;13.914;2022-09-01T13:47:45;3.80;;;1.63;;
18677;SDS011;9469;51.114;13.914;2022-09-01T13:53:11;3.20;;;1.10;;
18677;SDS011;9469;51.114;13.914;2022-09-01T13:58:19;2.63;;;1.13;;
18677;SDS011;9469;51.114;13.914;2022-09-01T14:03:25;0.83;;;0.83;;
18677;SDS011;9469;51.114;13.914;2022-09-01T14:08:32;2.80;;;0.93;;
18677;SDS011;9469;51.114;13.914;2022-09-01T14:13:40;4.27;;;1.27;;
18677;SDS011;9469;51.114;13.914;2022-09-01T14:18:47;2.47;;;1.20;;
18677;SDS011;9469;51.114;13.914;2022-09-01T14:23:52;1.97;;;1.37;;
18677;SDS011;9469;51.114;13.914;2022-09-01T14:29:00;3.97;;;1.00;;
18677;SDS011;9469;51.114;13.914;2022-09-01T14:34:05;2.43;;;1.50;;
18677;SDS011;9469;51.114;13.914;2022-09-01T14:39:12;2.47;;;0.90;;
18677;SDS011;9469;51.114;13.914;2022-09-01T14:44:20;2.20;;;1.23;;
18677;SDS011;9469;51.114;13.914;2022-09-01T14:49:25;2.17;;;1.00;;
18677;SDS011;9469;51.114;13.914;2022-09-01T14:54:33;4.67;;;1.40;;
18677;SDS011;9469;51.114;13.914;2022-09-01T14:59:41;2.20;;;1.33;;
18677;SDS011;9469;51.114;13.914;2022-09-01T15:04:46;2.17;;;1.20;;
18677;SDS011;9469;51.114;13.914;2022-09-01T15:09:51;2.13;;;0.93;;
18677;SDS011;9469;51.114;13.914;2022-09-01T15:14:59;2.10;;;0.80;;
18677;SDS011;9469;51.114;13.914;2022-09-01T15:20:08;6.50;;;1.03;;
18677;SDS011;9469;51.114;13.914;2022-09-01T15:25:26;2.47;;;1.03;;
18677;SDS011;9469;51.114;13.914;2022-09-01T15:30:33;3.03;;;1.10;;
18677;SDS011;9469;51.114;13.914;2022-09-01T15:35:40;4.13;;;1.10;;
18677;SDS011;9469;51.114;13.914;2022-09-01T15:40:46;2.17;;;1.10;;
18677;SDS011;9469;51.114;13.914;2022-09-01T15:46:01;1.17;;;1.10;;
18677;SDS011;9469;51.114;13.914;2022-09-01T15:51:24;2.80;;;0.90;;
18677;SDS011;9469;51.114;13.914;2022-09-01T15:56:33;1.60;;;1.20;;
18677;SDS011;9469;51.114;13.914;2022-09-01T16:01:41;1.90;;;0.90;;
18677;SDS011;9469;51.114;13.914;2022-09-01T16:06:48;3.67;;;1.00;;
18677;SDS011;9469;51.114;13.914;2022-09-01T16:11:53;1.73;;;0.90;;
18677;SDS011;9469;51.114;13.914;2022-09-01T16:17:02;1.43;;;0.90;;
18677;SDS011;9469;51.114;13.914;2022-09-01T16:22:10;1.63;;;0.93;;
18677;SDS011;9469;51.114;13.914;2022-09-01T16:27:20;1.77;;;0.83;;
18677;SDS011;9469;51.114;13.914;2022-09-01T16:32:30;4.23;;;1.90;;
18677;SDS011;9469;51.114;13.914;2022-09-01T16:37:38;2.50;;;1.50;;
18677;SDS011;9469;51.114;13.914;2022-09-01T16:42:52;1.83;;;0.90;;
18677;SDS011;9469;51.114;13.914;2022-09-01T16:48:09;2.33;;;1.20;;
18677;SDS011;9469;51.114;13.914;2022-09-01T16:53:33;2.73;;;1.00;;
18677;SDS011;9469;51.114;13.914;2022-09-01T16:58:47;1.87;;;1.03;;
18677;SDS011;9469;51.114;13.914;2022-09-01T17:04:09;1.90;;;0.97;;
18677;SDS011;9469;51.114;13.914;2022-09-01T17:09:24;4.30;;;1.03;;
18677;SDS011;9469;51.114;13.914;2022-09-01T17:14:35;3.03;;;1.17;;
18677;SDS011;9469;51.114;13.914;2022-09-01T17:19:47;2.17;;;1.30;;
18677;SDS011;9469;51.114;13.914;2022-09-01T17:24:55;1.23;;;1.00;;
18677;SDS011;9469;51.114;13.914;2022-09-01T17:30:06;1.30;;;1.00;;
18677;SDS011;9469;51.114;13.914;2022-09-01T17:35:18;4.13;;;1.67;;
18677;SDS011;9469;51.114;13.914;2022-09-01T17:40:32;3.17;;;1.50;;
18677;SDS011;9469;51.114;13.914;2022-09-01T17:45:53;2.63;;;1.23;;
18677;SDS011;9469;51.114;13.914;2022-09-01T17:51:08;5.13;;;1.60;;
18677;SDS011;9469;51.114;13.914;2022-09-01T17:56:26;1.73;;;1.20;;
18677;SDS011;9469;51.114;13.914;2022-09-01T18:01:43;1.97;;;1.30;;
18677;SDS011;9469;51.114;13.914;2022-09-01T18:07:00;2.50;;;1.50;;
18677;SDS011;9469;51.114;13.914;2022-09-01T18:12:13;3.97;;;1.50;;
18677;SDS011;9469;51.114;13.914;2022-09-01T18:17:25;5.17;;;2.17;;
18677;SDS011;9469;51.114;13.914;2022-09-01T18:22:38;6.13;;;1.90;;
18677;SDS011;9469;51.114;13.914;2022-09-01T18:27:46;8.13;;;2.77;;
18677;SDS011;9469;51.114;13.914;2022-09-01T18:32:52;4.67;;;2.87;;
18677;SDS011;9469;51.114;13.914;2022-09-01T18:38:14;4.17;;;2.90;;
18677;SDS011;9469;51.114;13.914;2022-09-01T18:43:36;6.67;;;2.57;;
18677;SDS011;9469;51.114;13.914;2022-09-01T18:48:51;3.53;;;2.30;;
18677;SDS011;9469;51.114;13.914;2022-09-01T18:54:08;4.53;;;2.60;;
18677;SDS011;9469;51.114;13.914;2022-09-01T18:59:26;4.80;;;2.50;;
18677;SDS011;9469;51.114;13.914;2022-09-01T19:04:44;4.60;;;2.30;;
18677;SDS011;9469;51.114;13.914;2022-09-01T19:09:57;3.53;;;1.73;;
18677;SDS011;9469;51.114;13.914;2022-09-01T19:15:11;5.90;;;1.77;;
18677;SDS011;9469;51.114;13.914;2022-09-01T19:20:22;3.10;;;2.00;;
18677;SDS011;9469;51.114;13.914;2022-09-01T19:25:37;2.67;;;1.80;;
18677;SDS011;9469;51.114;13.914;2022-09-01T19:30:45;3.13;;;1.80;;
18677;SDS011;9469;51.114;13.914;2022-09-01T19:35:54;4.53;;;2.20;;
18677;SDS011;9469;51.114;13.914;2022-09-01T19:41:06;4.67;;;1.70;;
18677;SDS011;9469;51.114;13.914;2022-09-01T19:46:17;3.73;;;1.67;;
18677;SDS011;9469;51.114;13.914;2022-09-01T19:51:28;3.17;;;1.80;;
18677;SDS011;9469;51.114;13.914;2022-09-01T19:56:39;5.27;;;1.93;;
18677;SDS011;9469;51.114;13.914;2022-09-01T20:01:51;5.50;;;2.00;;
18677;SDS011;9469;51.114;13.914;2022-09-01T20:07:00;4.93;;;1.70;;
18677;SDS011;9469;51.114;13.914;2022-09-01T20:12:12;2.80;;;2.27;;
18677;SDS011;9469;51.114;13.914;2022-09-01T20:17:27;2.80;;;2.00;;
18677;SDS011;9469;51.114;13.914;2022-09-01T20:22:39;3.53;;;1.90;;
18677;SDS011;9469;51.114;13.914;2022-09-01T20:27:56;4.83;;;2.00;;
18677;SDS011;9469;51.114;13.914;2022-09-01T20:33:09;3.13;;;2.00;;
18677;SDS011;9469;51.114;13.914;2022-09-01T20:38:21;7.13;;;1.90;;
18677;SDS011;9469;51.114;13.914;2022-09-01T20:43:48;6.07;;;2.00;;
18677;SDS011;9469;51.114;13.914;2022-09-01T20:48:56;3.07;;;2.03;;
18677;SDS011;9469;51.114;13.914;2022-09-01T20:54:07;3.30;;;2.27;;
18677;SDS011;9469;51.114;13.914;2022-09-01T20:59:35;2.40;;;1.60;;
18677;SDS011;9469;51.114;13.914;2022-09-01T21:04:47;4.03;;;2.13;;
18677;SDS011;9469;51.114;13.914;2022-09-01T21:10:03;4.23;;;2.30;;
18677;SDS011;9469;51.114;13.914;2022-09-01T21:15:19;4.40;;;2.10;;
18677;SDS011;9469;51.114;13.914;2022-09-01T21:20:38;5.77;;;2.03;;
18677;SDS011;9469;51.114;13.914;2022-09-01T21:25:54;3.80;;;2.30;;
18677;SDS011;9469;51.114;13.914;2022-09-01T21:31:02;5.23;;;2.03;;
18677;SDS011;9469;51.114;13.914;2022-09-01T21:36:10;3.30;;;2.30;;
18677;SDS011;9469;51.114;13.914;2022-09-01T21:41:15;3.20;;;2.00;;
18677;SDS011;9469;51.114;13.914;2022-09-01T21:46:23;6.27;;;2.63;;
18677;SDS011;9469;51.114;13.914;2022-09-01T21:51:29;6.23;;;2.57;;
18677;SDS011;9469;51.114;13.914;2022-09-01T21:56:34;3.30;;;2.40;;
18677;SDS011;9469;51.114;13.914;2022-09-01T22:01:42;4.97;;;2.07;;
18677;SDS011;9469;51.114;13.914;2022-09-01T22:06:47;3.27;;;2.23;;
18677;SDS011;9469;51.114;13.914;2022-09-01T22:11:52;4.77;;;2.27;;
18677;SDS011;9469;51.114;13.914;2022-09-01T22:17:00;4.13;;;2.77;;
18677;SDS011;9469;51.114;13.914;2022-09-01T22:22:05;4.23;;;2.40;;
18677;SDS011;9469;51.114;13.914;2022-09-01T22:27:10;3.13;;;2.83;;
18677;SDS011;9469;51.114;13.914;2022-09-01T22:32:18;5.40;;;2.53;;
18677;SDS011;9469;51.114;13.914;2022-09-01T22:37:23;7.83;;;2.60;;
18677;SDS011;9469;51.114;13.914;2022-09-01T22:42:28;6.13;;;2.80;;
18677;SDS011;9469;51.114;13.914;2022-09-01T22:47:36;5.83;;;2.87;;
18677;SDS011;9469;51.114;13.914;2022-09-01T22:52:41;5.70;;;3.00;;
18677;SDS011;9469;51.114;13.914;2022-09-01T22:57:48;6.33;;;3.13;;
18677;SDS011;9469;51.114;13.914;2022-09-01T23:02:56;5.43;;;2.73;;
18677;SDS011;9469;51.114;13.914;2022-09-01T23:08:02;5.80;;;2.80;;
18677;SDS011;9469;51.114;13.914;2022-09-01T23:13:07;3.17;;;2.90;;
18677;SDS011;9469;51.114;13.914;2022-09-01T23:18:15;5.57;;;2.73;;
18677;SDS011;9469;51.114;13.914;2022-09-01T23:23:20;4.60;;;2.90;;
18677;SDS011;9469;51.114;13.914;2022-09-01T23:28:25;6.13;;;3.07;;
18677;SDS011;9469;51.114;13.914;2022-09-01T23:33:33;5.73;;;2.87;;
18677;SDS011;9469;51.114;13.914;2022-09-01T23:38:38;3.87;;;3.20;;
18677;SDS011;9469;51.114;13.914;2022-09-01T23:43:43;3.80;;;2.50;;
18677;SDS011;9469;51.114;13.914;2022-09-01T23:48:52;4.10;;;2.40;;
18677;SDS011;9469;51.114;13.914;2022-09-01T23:53:57;3.47;;;2.47;;
18677;SDS011;9469;51.114;13.914;2022-09-01T23:59:03;6.53;;;2.67;;
